Time;durP1;ratioP1;P1;durP2;ratioP2;P2;SDS_P1;SDS_P2;PMS_P1;PMS_P2;Temp;Humidity;BMP_temperature;BMP_pressure;BME280_temperature;BME280_humidity;BME280_pressure;Samples;Min_cycle;Max_cycle;Signal;HPM_P1;HPM_P2
2023/08/02 00:01:55;;;;;;;1.30;0.43;;;16.20;99.90;;;;;;5093806;28;20047;-52
2023/08/02 00:04:20;;;;;;;1.20;0.40;;;16.20;99.90;;;;;;5093742;28;20123;-53
2023/08/02 00:06:46;;;;;;;1.80;0.50;;;16.20;99.90;;;;;;5092691;28;20134;-53
2023/08/02 00:09:12;;;;;;;1.77;0.40;;;16.20;99.90;;;;;;5093447;28;20044;-49
2023/08/02 00:11:38;;;;;;;1.50;0.40;;;16.30;99.90;;;;;;5092478;28;20047;-53
2023/08/02 00:14:03;;;;;;;1.13;0.50;;;16.20;99.90;;;;;;5093653;28;20048;-50
2023/08/02 00:16:29;;;;;;;1.00;0.40;;;16.20;99.90;;;;;;5093510;28;20051;-52
2023/08/02 00:18:55;;;;;;;1.13;0.50;;;16.20;99.90;;;;;;5093362;28;20056;-53
2023/08/02 00:21:21;;;;;;;2.05;0.50;;;16.20;99.90;;;;;;5093549;28;20494;-51
2023/08/02 00:23:46;;;;;;;1.45;0.50;;;16.20;99.90;;;;;;5092280;28;20093;-54
2023/08/02 00:26:12;;;;;;;2.72;0.50;;;16.20;99.90;;;;;;5093860;28;20376;-55
2023/08/02 00:28:37;;;;;;;1.88;0.60;;;16.20;99.90;;;;;;5093598;28;20131;-54
2023/08/02 00:31:03;;;;;;;0.80;0.50;;;16.20;99.90;;;;;;5093481;28;20045;-54
2023/08/02 00:33:29;;;;;;;2.30;0.70;;;16.20;99.90;;;;;;5093488;28;20040;-54
2023/08/02 00:35:54;;;;;;;4.72;0.50;;;16.30;99.90;;;;;;5092297;28;20399;-53
2023/08/02 00:38:21;;;;;;;1.23;0.50;;;16.20;99.90;;;;;;5093204;28;20040;-53
2023/08/02 00:40:48;;;;;;;1.13;0.40;;;16.20;99.90;;;;;;5093404;28;20274;-51
2023/08/02 00:43:14;;;;;;;3.55;0.60;;;16.20;99.90;;;;;;5093431;28;20044;-53
2023/08/02 00:45:40;;;;;;;0.77;0.40;;;16.20;99.90;;;;;;5092278;28;20402;-54
2023/08/02 00:48:05;;;;;;;1.85;0.52;;;16.30;99.90;;;;;;5093379;28;20076;-53
2023/08/02 00:50:34;;;;;;;1.23;0.50;;;16.20;99.90;;;;;;5095555;28;20047;-54
2023/08/02 00:53:01;;;;;;;2.53;0.70;;;16.20;99.90;;;;;;5097064;28;20486;-54
2023/08/02 00:55:27;;;;;;;1.02;0.50;;;16.30;99.90;;;;;;5097364;28;20058;-54
2023/08/02 00:57:53;;;;;;;0.77;0.40;;;16.30;99.90;;;;;;5097152;28;20044;-53
2023/08/02 01:00:19;;;;;;;0.77;0.45;;;16.20;99.90;;;;;;5096120;28;20101;-55
2023/08/02 01:02:45;;;;;;;1.45;0.50;;;16.20;99.90;;;;;;5096056;28;20044;-55
2023/08/02 01:05:11;;;;;;;2.40;0.60;;;16.20;99.90;;;;;;5096963;28;20117;-54
2023/08/02 01:08:00;;;;;;;1.10;0.57;;;16.20;99.90;;;;;;5097082;28;20079;-55
2023/08/02 01:10:32;;;;;;;2.80;1.02;;;16.20;99.90;;;;;;5096968;28;20556;-54
2023/08/02 01:13:02;;;;;;;1.95;0.60;;;16.20;99.90;;;;;;5095868;28;20094;-54
2023/08/02 01:15:28;;;;;;;2.35;0.80;;;16.20;99.90;;;;;;5096788;28;20121;-55
2023/08/02 01:17:54;;;;;;;1.50;0.68;;;16.20;99.90;;;;;;5096678;28;20048;-54
2023/08/02 01:20:20;;;;;;;;;;;16.20;99.90;;;;;;5097235;28;20044;-55
2023/08/02 01:22:46;;;;;;;1.60;0.50;;;16.20;99.90;;;;;;5096640;28;19924;-54
2023/08/02 01:25:12;;;;;;;1.83;0.80;;;16.20;99.90;;;;;;5095379;28;20048;-54
2023/08/02 01:27:52;;;;;;;1.83;0.77;;;16.20;99.90;;;;;;5096696;28;20040;-54
2023/08/02 01:30:20;;;;;;;3.70;0.95;;;16.20;99.90;;;;;;5096413;28;20091;-55
2023/08/02 01:32:46;;;;;;;2.55;1.00;;;16.20;99.90;;;;;;5096230;28;20048;-53
2023/08/02 01:35:13;;;;;;;2.40;1.30;;;16.30;99.90;;;;;;5095424;28;20052;-54
2023/08/02 01:37:41;;;;;;;2.10;0.80;;;16.20;99.90;;;;;;5096117;28;20517;-53
2023/08/02 01:40:07;;;;;;;3.00;0.95;;;16.20;99.90;;;;;;5096246;28;20044;-54
2023/08/02 01:42:33;;;;;;;1.67;0.80;;;16.20;99.90;;;;;;5129548;27;20195;-55
2023/08/02 01:44:58;;;;;;;2.30;0.90;;;16.20;99.90;;;;;;5095910;28;20083;-55
2023/08/02 01:47:24;;;;;;;3.65;0.90;;;16.20;99.90;;;;;;5096013;28;20535;-54
2023/08/02 01:49:50;;;;;;;3.50;1.13;;;16.20;99.90;;;;;;5094993;28;20044;-54
2023/08/02 01:52:15;;;;;;;2.83;0.98;;;16.20;99.90;;;;;;5094867;28;20130;-54
2023/08/02 01:54:41;;;;;;;4.20;1.30;;;16.20;99.90;;;;;;5095058;28;20048;-54
2023/08/02 01:57:06;;;;;;;3.23;1.03;;;16.30;99.90;;;;;;5095830;28;20282;-55
2023/08/02 01:59:32;;;;;;;3.05;1.20;;;16.20;99.90;;;;;;5095809;28;20281;-54
2023/08/02 02:01:58;;;;;;;3.45;1.15;;;16.20;99.90;;;;;;5095445;28;20040;-54
2023/08/02 02:04:23;;;;;;;2.30;0.90;;;16.20;99.90;;;;;;5095747;28;20052;-54
2023/08/02 02:06:49;;;;;;;2.38;1.10;;;16.20;99.90;;;;;;5094575;28;20335;-54
2023/08/02 02:09:15;;;;;;;2.13;1.00;;;16.20;99.90;;;;;;5095678;28;20051;-54
2023/08/02 02:11:41;;;;;;;3.15;1.15;;;16.20;99.90;;;;;;5095532;28;20048;-54
2023/08/02 02:14:07;;;;;;;2.67;1.00;;;16.20;99.90;;;;;;5095436;28;20080;-55
2023/08/02 02:16:32;;;;;;;4.43;1.40;;;16.20;99.90;;;;;;5095263;28;20054;-55
2023/08/02 02:18:58;;;;;;;4.25;1.50;;;16.20;99.90;;;;;;5095782;28;20122;-55
2023/08/02 02:21:23;;;;;;;2.17;1.15;;;16.20;99.90;;;;;;5095465;28;20071;-55
2023/08/02 02:23:49;;;;;;;3.75;1.70;;;16.20;99.90;;;;;;5094529;28;20368;-55
2023/08/02 02:26:15;;;;;;;4.45;1.80;;;16.20;99.90;;;;;;5094364;28;20047;-55
2023/08/02 02:28:41;;;;;;;4.38;1.77;;;16.20;99.90;;;;;;5077554;28;20063;-55
2023/08/02 02:31:06;;;;;;;4.45;1.45;;;16.20;99.90;;;;;;5094897;28;20047;-55
2023/08/02 02:33:32;;;;;;;6.00;1.77;;;16.20;99.90;;;;;;5094094;28;20495;-55
2023/08/02 02:35:57;;;;;;;4.10;1.63;;;16.20;99.90;;;;;;5095323;28;20132;-55
2023/08/02 02:38:23;;;;;;;4.47;1.65;;;16.20;99.90;;;;;;5095001;28;20048;-55
2023/08/02 02:40:49;;;;;;;4.28;1.60;;;16.20;99.90;;;;;;5093879;28;20077;-55
2023/08/02 02:43:14;;;;;;;4.60;1.50;;;16.20;99.90;;;;;;5095085;28;20040;-55
2023/08/02 02:45:40;;;;;;;4.37;1.27;;;16.20;99.90;;;;;;5094891;28;20274;-55
2023/08/02 02:48:06;;;;;;;5.65;1.70;;;16.20;99.90;;;;;;5094907;28;20326;-55
2023/08/02 02:50:31;;;;;;;4.90;1.50;;;16.20;99.90;;;;;;5094881;28;20048;-55
2023/08/02 02:52:58;;;;;;;4.05;1.42;;;16.20;99.90;;;;;;5093867;28;20048;-55
2023/08/02 02:55:24;;;;;;;3.80;1.50;;;16.20;99.90;;;;;;5094932;28;20050;-55
2023/08/02 02:57:50;;;;;;;3.55;1.40;;;16.20;99.90;;;;;;5094668;28;20043;-56
2023/08/02 03:00:16;;;;;;;3.80;1.60;;;16.20;99.90;;;;;;5094586;28;20093;-54
2023/08/02 03:02:42;;;;;;;4.20;1.70;;;16.20;99.90;;;;;;5094671;28;20044;-55
2023/08/02 03:05:08;;;;;;;3.05;1.48;;;16.20;99.90;;;;;;5094606;28;20040;-55
2023/08/02 03:07:33;;;;;;;3.30;1.30;;;16.10;99.90;;;;;;5094797;28;20040;-55
2023/08/02 03:09:59;;;;;;;4.38;1.30;;;16.10;99.90;;;;;;5094510;28;20040;-55
2023/08/02 03:12:25;;;;;;;4.05;1.42;;;16.20;99.90;;;;;;5093885;28;20471;-56
2023/08/02 03:14:50;;;;;;;3.25;1.48;;;16.10;99.90;;;;;;5094161;28;20044;-55
2023/08/02 03:17:16;;;;;;;3.33;1.55;;;16.10;99.90;;;;;;5093353;28;20113;-55
2023/08/02 03:19:42;;;;;;;3.80;1.40;;;16.10;99.90;;;;;;5094775;28;20526;-55
2023/08/02 03:22:07;;;;;;;4.70;1.67;;;16.10;99.90;;;;;;5094355;28;20039;-55
2023/08/02 03:24:33;;;;;;;2.95;1.38;;;16.10;99.90;;;;;;5094174;28;20130;-55
2023/08/02 03:26:59;;;;;;;7.95;2.45;;;16.10;99.90;;;;;;5094126;28;20134;-56
2023/08/02 03:29:25;;;;;;;3.33;1.30;;;16.10;99.90;;;;;;5094158;28;20042;-55
2023/08/02 03:31:51;;;;;;;;;;;16.10;99.90;;;;;;5094543;28;20044;-55
2023/08/02 03:34:16;;;;;;;3.40;1.33;;;16.10;99.90;;;;;;5094357;28;20002;-56
2023/08/02 03:36:42;;;;;;;3.30;1.48;;;16.10;99.90;;;;;;5094091;28;20433;-56
2023/08/02 03:39:09;;;;;;;3.47;1.50;;;16.10;99.90;;;;;;5092893;28;20032;-56
2023/08/02 03:41:34;;;;;;;4.18;1.27;;;16.10;99.90;;;;;;5093829;28;20275;-54
2023/08/02 03:44:00;;;;;;;6.40;1.30;;;16.10;99.90;;;;;;5094048;28;20363;-55
2023/08/02 03:46:26;;;;;;;3.90;1.20;;;16.10;99.90;;;;;;5093017;28;20044;-56
2023/08/02 03:48:51;;;;;;;5.40;1.77;;;16.10;99.90;;;;;;5093978;28;20402;-56
2023/08/02 03:51:17;;;;;;;4.78;1.60;;;16.10;99.90;;;;;;5093849;28;20387;-55
2023/08/02 03:53:43;;;;;;;3.28;1.40;;;16.10;99.90;;;;;;5092664;28;20066;-55
2023/08/02 03:56:08;;;;;;;4.47;1.50;;;16.10;99.90;;;;;;5093840;28;20050;-56
2023/08/02 03:58:34;;;;;;;4.05;1.05;;;16.10;99.90;;;;;;5093764;28;20502;-55
2023/08/02 04:01:00;;;;;;;4.57;1.42;;;16.00;99.90;;;;;;5092836;28;20117;-56
2023/08/02 04:03:26;;;;;;;2.80;1.23;;;16.00;99.90;;;;;;5093797;28;20040;-55
2023/08/02 04:05:51;;;;;;;4.50;1.33;;;16.00;99.90;;;;;;5093720;28;20051;-55
2023/08/02 04:08:17;;;;;;;3.75;1.33;;;16.00;99.90;;;;;;5093768;28;20048;-55
2023/08/02 04:10:43;;;;;;;5.63;1.50;;;16.00;99.90;;;;;;5093619;28;20041;-55
2023/08/02 04:13:08;;;;;;;3.40;1.30;;;16.00;99.90;;;;;;5093460;28;20082;-54
2023/08/02 04:15:35;;;;;;;4.82;1.38;;;16.00;99.90;;;;;;5093676;28;20040;-51
2023/08/02 04:18:02;;;;;;;6.95;1.67;;;16.00;99.90;;;;;;5093407;28;20547;-53
2023/08/02 04:20:28;;;;;;;4.95;1.45;;;16.00;99.90;;;;;;5093565;28;20093;-56
2023/08/02 04:22:53;;;;;;;3.72;1.52;;;16.00;99.90;;;;;;5093663;28;20048;-56
2023/08/02 04:25:19;;;;;;;5.72;1.58;;;16.00;99.90;;;;;;5094501;28;20043;-56
2023/08/02 04:27:45;;;;;;;7.95;1.80;;;16.00;99.90;;;;;;5097558;28;20127;-56
2023/08/02 04:30:11;;;;;;;4.63;1.98;;;16.00;99.90;;;;;;5097583;28;20394;-55
2023/08/02 04:32:37;;;;;;;6.43;2.10;;;16.00;99.90;;;;;;5097644;28;20062;-56
2023/08/02 04:35:03;;;;;;;5.43;1.67;;;16.00;99.90;;;;;;5097652;28;20546;-56
2023/08/02 04:37:29;;;;;;;4.43;2.13;;;16.00;99.90;;;;;;5097375;28;20040;-56
2023/08/02 04:39:54;;;;;;;7.47;2.30;;;16.00;99.90;;;;;;5097433;28;20405;-55
2023/08/02 04:42:20;;;;;;;7.15;1.83;;;16.00;99.90;;;;;;5097360;28;20050;-56
2023/08/02 04:44:46;;;;;;;6.25;1.80;;;16.00;99.90;;;;;;5097399;28;20530;-56
2023/08/02 04:47:11;;;;;;;8.30;1.98;;;16.00;99.90;;;;;;5097260;28;20475;-56
2023/08/02 04:49:37;;;;;;;6.93;2.25;;;16.00;99.90;;;;;;5097232;28;20047;-56
2023/08/02 04:52:03;;;;;;;5.63;2.25;;;16.00;99.90;;;;;;5097060;28;20044;-56
2023/08/02 04:54:29;;;;;;;7.15;2.47;;;16.00;99.90;;;;;;5097123;28;20097;-56
2023/08/02 04:56:54;;;;;;;4.88;2.17;;;16.00;99.90;;;;;;5096853;28;20055;-56
2023/08/02 04:59:23;;;;;;;6.72;2.00;;;16.00;99.90;;;;;;5096159;28;20036;-55
2023/08/02 05:01:48;;;;;;;7.32;2.17;;;16.00;99.90;;;;;;5097170;28;20395;-56
2023/08/02 05:04:14;;;;;;;7.85;2.42;;;16.00;99.90;;;;;;5095978;28;20047;-55
2023/08/02 05:06:40;;;;;;;5.72;2.08;;;16.00;99.90;;;;;;5096955;28;20047;-56
2023/08/02 05:09:06;;;;;;;5.05;1.98;;;16.00;99.90;;;;;;5096820;28;20104;-56
2023/08/02 05:11:32;;;;;;;7.65;3.10;;;16.00;99.90;;;;;;5096650;28;20052;-56
2023/08/02 05:13:58;;;;;;;9.23;2.38;;;16.00;99.90;;;;;;5096811;28;20044;-56
2023/08/02 05:16:25;;;;;;;7.55;2.20;;;16.00;99.90;;;;;;5096943;28;20059;-55
2023/08/02 05:18:51;;;;;;;8.32;2.67;;;16.00;99.90;;;;;;5096621;28;20435;-55
2023/08/02 05:21:18;;;;;;;5.38;2.00;;;16.00;99.90;;;;;;5096740;28;20044;-56
2023/08/02 05:23:45;;;;;;;5.15;2.00;;;16.00;99.90;;;;;;5096614;28;20078;-56
2023/08/02 05:26:12;;;;;;;6.18;2.10;;;16.00;99.90;;;;;;5096405;28;20044;-56
2023/08/02 05:28:39;;;;;;;5.15;2.10;;;16.00;99.90;;;;;;5096497;28;20052;-56
2023/08/02 05:31:10;;;;;;;4.70;2.00;;;16.00;99.90;;;;;;5095331;28;20082;-56
2023/08/02 05:33:35;;;;;;;7.07;2.85;;;16.00;99.90;;;;;;5095601;28;20075;-56
2023/08/02 05:36:01;;;;;;;7.00;2.28;;;16.00;99.90;;;;;;5095801;28;20090;-56
2023/08/02 05:38:27;;;;;;;9.07;2.72;;;16.00;99.90;;;;;;5095368;28;20051;-56
2023/08/02 05:40:52;;;;;;;7.50;2.40;;;16.00;99.90;;;;;;5094989;28;20462;-55
2023/08/02 05:43:18;;;;;;;8.05;2.35;;;16.00;99.90;;;;;;5096226;28;20055;-56
2023/08/02 05:45:43;;;;;;;4.80;2.35;;;16.00;99.90;;;;;;5096202;28;20051;-56
2023/08/02 05:48:09;;;;;;;5.13;1.92;;;16.10;99.90;;;;;;5096123;28;20092;-56
2023/08/02 05:50:35;;;;;;;5.75;2.45;;;16.20;99.90;;;;;;5078249;28;20039;-56
2023/08/02 05:53:00;;;;;;;6.75;2.50;;;16.20;99.90;;;;;;5096171;28;20040;-56
2023/08/02 05:55:26;;;;;;;6.10;2.60;;;16.20;99.90;;;;;;5095811;28;20453;-56
2023/08/02 05:57:52;;;;;;;6.00;2.40;;;16.20;99.90;;;;;;5096183;28;20745;-56
2023/08/02 06:00:18;;;;;;;9.23;2.73;;;16.30;99.90;;;;;;5095790;28;20745;-56
2023/08/02 06:02:44;;;;;;;9.27;2.45;;;16.30;99.90;;;;;;5095961;28;20274;-56
2023/08/02 06:05:09;;;;;;;6.80;2.75;;;16.30;99.90;;;;;;5094379;28;20052;-56
2023/08/02 06:07:35;;;;;;;8.18;2.60;;;16.30;99.90;;;;;;5095631;28;20048;-56
2023/08/02 06:10:01;;;;;;;6.43;2.78;;;16.40;99.90;;;;;;5095464;28;20548;-55
2023/08/02 06:12:26;;;;;;;7.18;2.45;;;16.30;99.90;;;;;;5095709;28;20368;-56
2023/08/02 06:14:52;;;;;;;7.90;2.50;;;16.30;99.90;;;;;;5095665;28;20044;-55
2023/08/02 06:17:18;;;;;;;7.97;2.47;;;16.30;99.90;;;;;;5095333;28;20117;-55
2023/08/02 06:19:43;;;;;;;7.25;2.60;;;16.30;99.90;;;;;;5095437;28;20099;-55
2023/08/02 06:22:09;;;;;;;5.45;2.20;;;16.30;99.90;;;;;;5095364;28;20110;-55
2023/08/02 06:24:35;;;;;;;6.55;2.70;;;16.30;99.90;;;;;;5095198;28;20044;-55
2023/08/02 06:27:01;;;;;;;7.03;3.00;;;16.30;99.90;;;;;;5095383;28;20044;-55
2023/08/02 06:29:26;;;;;;;6.23;2.80;;;16.40;99.90;;;;;;5094408;28;20104;-55
2023/08/02 06:31:52;;;;;;;7.13;2.97;;;16.40;99.90;;;;;;5095185;28;20378;-55
2023/08/02 06:34:18;;;;;;;7.13;2.53;;;16.50;99.90;;;;;;5095163;28;20044;-56
2023/08/02 06:36:43;;;;;;;8.05;2.85;;;16.50;99.90;;;;;;5095099;28;20055;-56
2023/08/02 06:39:09;;;;;;;6.78;2.70;;;16.50;99.90;;;;;;5094987;28;20399;-56
2023/08/02 06:41:35;;;;;;;7.07;2.72;;;16.60;99.90;;;;;;5094907;28;20486;-56
2023/08/02 06:44:00;;;;;;;7.00;2.75;;;16.50;99.90;;;;;;5095219;28;20475;-56
2023/08/02 06:46:26;;;;;;;8.00;3.15;;;16.60;99.90;;;;;;5094214;28;20485;-56
2023/08/02 06:48:52;;;;;;;6.93;2.88;;;16.60;99.90;;;;;;5094063;28;20450;-56
2023/08/02 06:51:17;;;;;;;7.75;3.28;;;16.60;99.90;;;;;;5094710;28;20050;-56
2023/08/02 06:53:43;;;;;;;6.63;3.45;;;16.60;99.90;;;;;;5076882;28;20036;-55
2023/08/02 06:56:14;;;;;;;6.90;3.60;;;16.70;99.90;;;;;;5094569;28;20044;-56
2023/08/02 06:58:40;;;;;;;9.82;3.55;;;16.70;99.90;;;;;;5094812;28;20777;-56
2023/08/02 07:01:12;;;;;;;;;;;16.60;99.90;;;;;;5094417;28;20105;-56
2023/08/02 07:03:38;;;;;;;6.40;3.03;;;16.60;99.90;;;;;;5094679;28;19920;-56
2023/08/02 07:06:18;;;;;;;9.43;3.58;;;16.60;99.90;;;;;;5094725;28;20109;-56
2023/08/02 07:08:44;;;;;;;8.95;3.80;;;16.70;99.90;;;;;;5094615;28;20117;-56
2023/08/02 07:11:10;;;;;;;7.25;3.65;;;16.60;99.90;;;;;;5093095;28;20082;-55
2023/08/02 07:13:43;;;;;;;7.72;3.85;;;16.70;99.90;;;;;;5094308;28;20048;-55
2023/08/02 07:16:09;;;;;;;6.68;3.53;;;16.60;99.90;;;;;;5094527;28;20097;-56
2023/08/02 07:18:34;;;;;;;8.60;3.92;;;16.60;99.90;;;;;;5094223;28;20063;-55
2023/08/02 07:21:08;;;;;;;7.15;4.15;;;16.60;99.90;;;;;;5093101;28;20039;-54
2023/08/02 07:23:35;;;;;;;8.13;3.95;;;16.60;99.90;;;;;;5094292;28;20044;-55
2023/08/02 07:26:01;;;;;;;7.20;4.03;;;16.60;99.90;;;;;;5094187;28;20052;-54
2023/08/02 07:28:27;;;;;;;;;;;16.60;99.90;;;;;;5094726;28;20044;-56
2023/08/02 07:30:53;;;;;;;8.60;4.03;;;16.60;99.90;;;;;;5094048;28;19927;-55
2023/08/02 07:33:18;;;;;;;8.75;4.03;;;16.60;99.90;;;;;;5094151;28;20044;-55
2023/08/02 07:35:46;;;;;;;6.10;3.30;;;16.60;99.90;;;;;;5094240;28;20052;-54
2023/08/02 07:38:16;;;;;;;7.90;3.50;;;16.60;99.90;;;;;;5094119;28;20083;-55
2023/08/02 07:40:43;;;;;;;6.93;3.28;;;16.60;99.90;;;;;;5094113;28;20048;-55
2023/08/02 07:43:10;;;;;;;7.93;3.83;;;16.60;99.90;;;;;;5093965;28;20044;-55
2023/08/02 07:45:35;;;;;;;6.53;2.92;;;16.60;99.90;;;;;;5094015;28;20044;-53
2023/08/02 07:48:01;;;;;;;6.72;2.83;;;16.60;99.90;;;;;;5093915;28;20044;-53
2023/08/02 07:50:27;;;;;;;6.95;2.65;;;16.70;99.90;;;;;;5094071;28;20040;-55
2023/08/02 07:52:52;;;;;;;7.82;2.42;;;16.70;99.90;;;;;;5093985;28;20487;-54
2023/08/02 07:55:18;;;;;;;4.65;1.95;;;16.70;99.90;;;;;;5094104;28;20066;-54
2023/08/02 07:57:43;;;;;;;5.43;2.28;;;16.70;99.90;;;;;;5093751;28;20051;-55
2023/08/02 08:00:10;;;;;;;8.43;2.38;;;16.70;99.90;;;;;;5093487;28;20127;-53
2023/08/02 08:02:35;;;;;;;6.28;2.20;;;16.70;99.90;;;;;;5093635;28;20094;-51
2023/08/02 08:05:01;;;;;;;5.05;2.42;;;16.70;99.90;;;;;;5093976;28;20119;-54
2023/08/02 08:07:27;;;;;;;5.75;2.38;;;16.70;99.90;;;;;;5093828;28;20051;-54
2023/08/02 08:09:52;;;;;;;5.82;2.22;;;16.70;99.90;;;;;;5093475;28;20050;-54
2023/08/02 08:12:18;;;;;;;6.22;2.20;;;16.70;99.90;;;;;;5093648;28;20044;-53
2023/08/02 08:14:44;;;;;;;7.07;1.95;;;16.80;99.90;;;;;;5093747;28;20036;-53
2023/08/02 08:17:09;;;;;;;5.80;2.50;;;16.70;99.90;;;;;;5093245;28;20395;-54
2023/08/02 08:19:35;;;;;;;4.72;2.17;;;16.70;99.90;;;;;;5094036;28;20403;-54
2023/08/02 08:22:01;;;;;;;5.25;2.10;;;16.80;99.90;;;;;;5093549;28;20280;-54
2023/08/02 08:24:28;;;;;;;5.13;2.55;;;16.70;99.90;;;;;;5094057;28;20051;-51
2023/08/02 08:26:57;;;;;;;5.53;2.22;;;16.70;99.90;;;;;;5093562;28;20135;-53
2023/08/02 08:29:23;;;;;;;5.07;1.92;;;16.70;99.90;;;;;;5092492;28;20051;-55
2023/08/02 08:31:48;;;;;;;7.60;2.08;;;16.70;99.90;;;;;;5093170;28;20043;-56
2023/08/02 08:34:14;;;;;;;4.93;1.80;;;16.70;99.90;;;;;;5093551;28;20048;-56
2023/08/02 08:36:40;;;;;;;5.20;1.77;;;16.70;99.90;;;;;;5093627;28;20048;-56
2023/08/02 08:39:06;;;;;;;5.60;1.77;;;16.70;99.90;;;;;;5092547;28;20083;-56
2023/08/02 08:41:31;;;;;;;5.35;1.60;;;16.70;99.90;;;;;;5093244;28;20048;-57
2023/08/02 08:44:00;;;;;;;4.55;1.75;;;16.60;99.90;;;;;;5093541;28;20040;-57
2023/08/02 08:46:27;;;;;;;3.65;1.50;;;16.60;99.90;;;;;;5092099;28;20127;-53
2023/08/02 08:48:53;;;;;;;3.38;1.40;;;16.60;99.90;;;;;;5093387;28;20090;-55
2023/08/02 08:51:22;;;;;;;4.72;1.52;;;16.50;99.90;;;;;;5093318;28;20372;-55
2023/08/02 08:53:48;;;;;;;4.63;1.60;;;16.50;99.90;;;;;;5093408;28;20042;-54
2023/08/02 08:56:15;;;;;;;3.67;1.42;;;16.40;99.90;;;;;;5093382;28;20047;-56
2023/08/02 08:58:41;;;;;;;5.40;1.38;;;16.40;99.90;;;;;;5093114;28;20052;-56
2023/08/02 09:01:07;;;;;;;3.67;1.50;;;16.40;99.90;;;;;;5093135;28;20483;-56
2023/08/02 09:03:34;;;;;;;4.35;1.52;;;16.30;99.90;;;;;;5092996;28;20048;-56
2023/08/02 09:06:01;;;;;;;4.35;1.58;;;16.30;99.90;;;;;;5093217;28;20081;-55
2023/08/02 09:08:27;;;;;;;10.20;1.90;;;16.30;99.90;;;;;;5093452;28;20143;-53
2023/08/02 09:10:53;;;;;;;5.82;1.80;;;16.30;99.90;;;;;;5094120;28;20048;-54
2023/08/02 09:13:27;;;;;;;4.40;1.40;;;16.20;99.90;;;;;;5096768;28;20039;-52
2023/08/02 09:16:22;;;;;;;5.95;1.60;;;16.20;99.90;;;;;;5096634;28;20101;-52
2023/08/02 09:18:48;;;;;;;4.32;1.63;;;16.10;99.90;;;;;;5083244;28;20058;-52
2023/08/02 09:21:15;;;;;;;8.43;1.98;;;16.10;99.90;;;;;;5096724;28;20051;-51
2023/08/02 09:23:48;;;;;;;4.57;1.88;;;16.10;99.90;;;;;;5096458;28;20048;-51
2023/08/02 09:26:16;;;;;;;5.53;1.55;;;16.10;99.90;;;;;;5096302;28;20051;-51
2023/08/02 09:29:06;;;;;;;7.07;1.70;;;16.10;99.90;;;;;;5095572;28;20098;-52
2023/08/02 09:31:33;;;;;;;4.63;1.67;;;16.10;99.90;;;;;;5096344;28;20047;-53
2023/08/02 09:33:59;;;;;;;5.65;1.70;;;16.10;99.90;;;;;;5096269;28;20047;-52
2023/08/02 09:36:29;;;;;;;5.93;1.60;;;16.10;99.90;;;;;;5096273;28;20510;-48
2023/08/02 09:39:10;;;;;;;4.55;1.50;;;16.10;99.90;;;;;;5096375;28;20122;-47
2023/08/02 09:41:36;;;;;;;3.70;1.60;;;16.10;99.90;;;;;;5096453;28;20036;-49
2023/08/02 09:44:02;;;;;;;4.88;1.52;;;16.10;99.90;;;;;;5096338;28;20047;-48
2023/08/02 09:46:30;;;;;;;4.55;1.77;;;16.10;99.90;;;;;;5096082;28;20055;-47
2023/08/02 09:49:00;;;;;;;4.93;1.38;;;16.10;99.90;;;;;;5095898;28;20044;-47
2023/08/02 09:51:39;;;;;;;5.55;1.55;;;16.10;99.90;;;;;;5096004;28;20479;-48
2023/08/02 09:54:05;;;;;;;5.35;1.58;;;16.10;99.90;;;;;;5095092;28;20044;-47
2023/08/02 09:56:34;;;;;;;4.18;1.48;;;16.10;99.90;;;;;;5096012;28;20442;-47
2023/08/02 09:59:01;;;;;;;5.78;1.90;;;16.10;99.90;;;;;;5095895;28;20040;-47
2023/08/02 10:01:29;;;;;;;3.38;1.55;;;16.10;99.90;;;;;;5095785;28;20043;-47
2023/08/02 10:03:57;;;;;;;4.13;1.60;;;16.10;99.90;;;;;;5094648;28;20081;-48
2023/08/02 10:06:37;;;;;;;4.60;2.00;;;16.10;99.90;;;;;;5095744;28;20040;-48
2023/08/02 10:09:05;;;;;;;5.57;1.90;;;16.10;99.90;;;;;;5095661;28;20048;-48
2023/08/02 10:12:03;;;;;;;7.28;2.00;;;16.10;99.90;;;;;;5094526;28;20040;-47
2023/08/02 10:14:31;;;;;;;6.32;2.30;;;16.10;99.90;;;;;;5087284;28;20098;-48
2023/08/02 10:17:02;;;;;;;5.50;2.10;;;16.10;99.90;;;;;;5094535;28;20043;-48
2023/08/02 10:19:32;;;;;;;4.95;2.20;;;16.20;99.90;;;;;;5094590;28;20441;-49
2023/08/02 10:21:59;;;;;;;5.95;2.25;;;16.20;99.90;;;;;;5095393;28;20496;-50
2023/08/02 10:24:28;;;;;;;6.13;2.25;;;16.20;99.90;;;;;;5095419;28;20483;-48
2023/08/02 10:27:05;;;;;;;7.13;2.70;;;16.20;99.90;;;;;;5095600;28;20044;-47
2023/08/02 10:29:33;;;;;;;6.18;2.40;;;16.20;99.90;;;;;;5095296;28;20240;-48
2023/08/02 10:32:21;;;;;;;4.28;2.05;;;16.10;99.90;;;;;;5095283;28;20044;-48
2023/08/02 10:34:49;;;;;;;8.68;2.40;;;16.10;99.90;;;;;;5094207;28;20066;-49
2023/08/02 10:37:16;;;;;;;6.47;2.50;;;16.10;99.90;;;;;;5095213;28;20133;-47
2023/08/02 10:39:45;;;;;;;6.40;2.17;;;16.10;99.90;;;;;;5094928;28;20552;-47
2023/08/02 10:42:14;;;;;;;4.15;2.00;;;16.10;99.90;;;;;;5095002;28;20058;-47
2023/08/02 10:44:55;;;;;;;4.28;2.00;;;16.10;99.90;;;;;;5095196;28;20100;-47
2023/08/02 10:47:28;;;;;;;3.85;1.80;;;16.10;99.90;;;;;;5094839;28;20101;-48
2023/08/02 10:49:55;;;;;;;5.88;2.22;;;16.10;99.90;;;;;;5094998;28;20046;-48
2023/08/02 10:52:39;;;;;;;4.85;2.10;;;16.10;99.90;;;;;;5094834;28;20040;-48
2023/08/02 10:55:12;;;;;;;3.60;1.80;;;16.10;99.90;;;;;;5094912;28;20090;-48
2023/08/02 10:58:05;;;;;;;4.50;1.67;;;16.10;99.90;;;;;;5094825;28;20131;-50
2023/08/02 11:00:32;;;;;;;5.20;1.80;;;16.20;99.90;;;;;;5094824;28;20066;-51
2023/08/02 11:02:59;;;;;;;3.25;1.50;;;16.20;99.90;;;;;;5094733;28;20087;-49
2023/08/02 11:05:38;;;;;;;;;;;16.20;99.90;;;;;;5094986;28;20048;-48
2023/08/02 11:08:04;;;;;;;2.30;1.10;;;16.20;99.90;;;;;;5094492;28;20283;-49
2023/08/02 11:10:30;;;;;;;4.03;1.20;;;16.30;99.90;;;;;;5094323;28;20059;-47
2023/08/02 11:12:55;;;;;;;3.45;1.30;;;16.30;99.90;;;;;;5094578;28;20039;-49
2023/08/02 11:15:21;;;;;;;3.00;0.98;;;16.30;99.90;;;;;;5094517;28;20048;-48
2023/08/02 11:17:55;;;;;;;2.90;1.17;;;16.30;99.90;;;;;;5094530;28;20095;-48
2023/08/02 11:20:28;;;;;;;2.95;0.98;;;16.30;99.90;;;;;;5094551;28;20078;-49
2023/08/02 11:22:54;;;;;;;2.15;0.82;;;16.40;99.90;;;;;;5094275;28;20051;-49
2023/08/02 11:25:20;;;;;;;;;;;16.40;99.90;;;;;;5095025;28;20067;-48
2023/08/02 11:27:46;;;;;;;2.88;0.70;;;16.50;99.90;;;;;;5094311;28;20011;-48
2023/08/02 11:30:12;;;;;;;1.77;0.60;;;16.50;99.90;;;;;;5092995;28;20130;-48
2023/08/02 11:32:45;;;;;;;2.95;0.70;;;16.50;99.90;;;;;;5094120;28;20097;-47
2023/08/02 11:35:18;;;;;;;1.42;0.70;;;16.50;99.90;;;;;;5092704;28;20048;-48
2023/08/02 11:37:44;;;;;;;1.13;0.52;;;16.50;99.90;;;;;;5092677;28;20048;-47
2023/08/02 11:40:11;;;;;;;3.38;0.80;;;16.50;99.90;;;;;;5093921;28;20479;-49
2023/08/02 11:42:51;;;;;;;1.35;0.60;;;16.50;99.90;;;;;;5092899;28;20048;-48
2023/08/02 11:45:31;;;;;;;1.55;0.60;;;16.50;99.90;;;;;;5076450;28;20101;-48
2023/08/02 11:47:57;;;;;;;1.83;0.57;;;16.50;99.90;;;;;;5093894;28;20109;-47
2023/08/02 11:50:24;;;;;;;3.72;0.60;;;16.60;99.90;;;;;;5094248;28;20476;-48
2023/08/02 11:52:50;;;;;;;1.83;0.75;;;16.60;99.90;;;;;;5094089;28;20044;-47
2023/08/02 11:55:17;;;;;;;1.70;0.60;;;16.50;99.90;;;;;;5093900;28;20361;-49
2023/08/02 11:57:42;;;;;;;1.08;0.40;;;16.60;99.90;;;;;;5093901;28;20115;-47
2023/08/02 12:00:09;;;;;;;3.08;0.50;;;16.60;99.90;;;;;;5093622;28;20495;-48
2023/08/02 12:02:34;;;;;;;0.75;0.43;;;16.60;99.90;;;;;;5093724;28;20407;-48
2023/08/02 12:05:08;;;;;;;2.20;0.55;;;16.60;99.90;;;;;;5093930;28;20055;-47
2023/08/02 12:07:35;;;;;;;0.85;0.40;;;16.60;99.90;;;;;;5093777;28;20059;-49
2023/08/02 12:10:04;;;;;;;1.38;0.60;;;16.70;99.90;;;;;;5093756;28;20043;-48
2023/08/02 12:12:32;;;;;;;1.80;0.55;;;16.70;99.90;;;;;;5093651;28;20040;-48
2023/08/02 12:14:58;;;;;;;1.33;0.40;;;16.70;99.90;;;;;;5093740;28;20136;-49
2023/08/02 12:17:24;;;;;;;1.90;0.70;;;16.80;99.90;;;;;;5093320;28;20048;-49
2023/08/02 12:19:51;;;;;;;0.93;0.50;;;16.80;99.90;;;;;;5093952;28;20078;-49
2023/08/02 12:22:19;;;;;;;1.10;0.40;;;16.90;99.90;;;;;;5093616;28;20040;-48
2023/08/02 12:25:01;;;;;;;1.40;0.50;;;16.90;99.90;;;;;;5093338;28;20497;-48
2023/08/02 12:27:27;;;;;;;1.38;0.60;;;16.90;99.90;;;;;;5093464;28;20044;-50
2023/08/02 12:30:07;;;;;;;1.48;0.60;;;16.90;99.90;;;;;;5093464;28;20043;-50
2023/08/02 12:32:33;;;;;;;1.35;0.60;;;16.90;99.90;;;;;;5093254;28;20036;-48
2023/08/02 12:35:09;;;;;;;1.52;0.70;;;16.90;99.90;;;;;;5092147;28;20054;-48
2023/08/02 12:37:36;;;;;;;1.90;0.88;;;16.90;99.90;;;;;;5093382;28;20048;-48
2023/08/02 12:40:03;;;;;;;1.77;0.88;;;17.00;99.90;;;;;;5093400;28;20085;-53
2023/08/02 12:42:28;;;;;;;1.92;0.90;;;17.00;99.90;;;;;;5093175;28;20446;-55
2023/08/02 12:44:54;;;;;;;2.55;0.90;;;17.00;99.90;;;;;;5093491;28;20044;-53
2023/08/02 12:47:20;;;;;;;1.55;0.93;;;17.00;99.90;;;;;;5096731;28;20052;-53
2023/08/02 12:49:45;;;;;;;2.75;0.65;;;17.00;99.90;;;;;;5097179;28;20080;-54